CGBYQ TQPF-TLPC
Flight info
| Callsign | CGBYQ |
|---|---|
| Flight time | 1h 14m |
| Altitude | 15000 |
| Route | ZPATA A517 PPR A312 FOF DCT KISES |
| Aircraft | PC12/L-SDFGRWY/S |
Departure
| Time | 2026-05-01 11:03 |
|---|---|
| Airport | Clayton J. Lloyd International Airport (TQPF) |
Arrival
| Time | 2026-05-01 12:17 |
|---|---|
| Airport | George F. L. Charles Airport (TLPC) |
| Time | Latitude | Longitude | Altitude | Speed | Heading |
|---|---|---|---|---|---|
| 2026-05-01 10:43 | 18.20614 | -63.05192 | 124 ft | 0 kts | 176° |
| 2026-05-01 10:58 | 18.20587 | -63.05175 | 123 ft | 9 kts | 143° |
| 2026-05-01 10:58 | 18.20514 | -63.05160 | 121 ft | 12 kts | 175° |
| 2026-05-01 10:58 | 18.20471 | -63.05219 | 124 ft | 12 kts | 266° |
| 2026-05-01 10:59 | 18.20474 | -63.05321 | 124 ft | 16 kts | 272° |
| 2026-05-01 10:59 | 18.20476 | -63.05446 | 121 ft | 18 kts | 270° |
| 2026-05-01 10:59 | 18.20474 | -63.05582 | 123 ft | 19 kts | 271° |
| 2026-05-01 10:59 | 18.20475 | -63.05721 | 121 ft | 19 kts | 269° |
| 2026-05-01 11:00 | 18.20477 | -63.05860 | 120 ft | 18 kts | 270° |
| 2026-05-01 11:00 | 18.20478 | -63.05983 | 122 ft | 15 kts | 272° |
| 2026-05-01 11:00 | 18.20479 | -63.06081 | 126 ft | 12 kts | 272° |
| 2026-05-01 11:00 | 18.20468 | -63.06147 | 127 ft | 6 kts | 259° |
| 2026-05-01 11:01 | 18.20474 | -63.06156 | 130 ft | 1 kts | 348° |
| 2026-05-01 11:01 | 18.20489 | -63.06131 | 129 ft | 9 kts | 81° |
| 2026-05-01 11:01 | 18.20490 | -63.06113 | 128 ft | 0 kts | 91° |
| 2026-05-01 11:02 | 18.20489 | -63.06072 | 126 ft | 25 kts | 91° |
| 2026-05-01 11:02 | 18.20484 | -63.05679 | 122 ft | 78 kts | 91° |
| 2026-05-01 11:02 | 18.20485 | -63.05023 | 278 ft | 94 kts | 91° |
| 2026-05-01 11:02 | 18.20444 | -63.04315 | 581 ft | 100 kts | 108° |
| 2026-05-01 11:03 | 18.20017 | -63.03675 | 851 ft | 121 kts | 147° |
| 2026-05-01 11:03 | 18.19198 | -63.03511 | 1381 ft | 122 kts | 191° |
| 2026-05-01 11:03 | 18.18458 | -63.03903 | 1999 ft | 119 kts | 219° |
| 2026-05-01 11:03 | 18.17864 | -63.04500 | 2509 ft | 115 kts | 207° |
| 2026-05-01 11:04 | 18.17142 | -63.04517 | 2981 ft | 103 kts | 154° |
| 2026-05-01 11:04 | 18.16483 | -63.04248 | 3458 ft | 101 kts | 157° |
| 2026-05-01 11:04 | 18.15818 | -63.04012 | 3901 ft | 101 kts | 158° |
| 2026-05-01 11:04 | 18.15153 | -63.03793 | 4338 ft | 100 kts | 160° |
| 2026-05-01 11:05 | 18.14485 | -63.03582 | 4764 ft | 100 kts | 160° |
| 2026-05-01 11:05 | 18.13815 | -63.03374 | 5181 ft | 101 kts | 160° |
| 2026-05-01 11:05 | 18.13140 | -63.03168 | 5584 ft | 101 kts | 161° |
| 2026-05-01 11:05 | 18.12455 | -63.02958 | 5975 ft | 106 kts | 161° |
| 2026-05-01 11:06 | 18.11677 | -63.02721 | 6242 ft | 128 kts | 161° |
| 2026-05-01 11:06 | 18.10735 | -63.02437 | 6510 ft | 153 kts | 162° |
| 2026-05-01 11:06 | 18.09640 | -63.02109 | 6771 ft | 173 kts | 163° |
| 2026-05-01 11:07 | 18.07127 | -63.01351 | 7278 ft | 200 kts | 162° |
| 2026-05-01 11:07 | 18.05762 | -63.00939 | 7531 ft | 207 kts | 162° |
| 2026-05-01 11:07 | 18.04360 | -63.00515 | 7781 ft | 212 kts | 163° |
| 2026-05-01 11:07 | 18.02929 | -63.00082 | 8032 ft | 215 kts | 163° |
| 2026-05-01 11:08 | 18.01481 | -62.99643 | 8282 ft | 218 kts | 163° |
| 2026-05-01 11:08 | 18.00019 | -62.99201 | 8534 ft | 220 kts | 163° |
| 2026-05-01 11:08 | 17.97088 | -62.98314 | 9032 ft | 222 kts | 162° |
| 2026-05-01 11:09 | 17.95602 | -62.97864 | 9280 ft | 222 kts | 163° |
| 2026-05-01 11:09 | 17.94111 | -62.97414 | 9533 ft | 224 kts | 163° |
| 2026-05-01 11:09 | 17.92612 | -62.96961 | 9781 ft | 224 kts | 163° |
| 2026-05-01 11:10 | 17.89603 | -62.96051 | 10281 ft | 225 kts | 163° |
| 2026-05-01 11:10 | 17.88094 | -62.95595 | 10532 ft | 226 kts | 163° |
| 2026-05-01 11:10 | 17.86579 | -62.95138 | 10782 ft | 227 kts | 164° |
| 2026-05-01 11:10 | 17.85058 | -62.94678 | 11032 ft | 227 kts | 164° |
| 2026-05-01 11:11 | 17.83535 | -62.94219 | 11283 ft | 228 kts | 164° |
| 2026-05-01 11:11 | 17.82003 | -62.93756 | 11534 ft | 229 kts | 165° |
| 2026-05-01 11:11 | 17.80466 | -62.93293 | 11784 ft | 230 kts | 165° |
| 2026-05-01 11:11 | 17.78926 | -62.92828 | 12033 ft | 231 kts | 165° |
| 2026-05-01 11:12 | 17.77379 | -62.92361 | 12284 ft | 231 kts | 165° |
| 2026-05-01 11:12 | 17.75830 | -62.91893 | 12535 ft | 232 kts | 166° |
| 2026-05-01 11:12 | 17.74278 | -62.91425 | 12783 ft | 232 kts | 166° |
| 2026-05-01 11:12 | 17.72747 | -62.90964 | 13030 ft | 232 kts | 166° |
| 2026-05-01 11:13 | 17.71192 | -62.90496 | 13281 ft | 232 kts | 166° |
| 2026-05-01 11:13 | 17.69640 | -62.90028 | 13532 ft | 232 kts | 166° |
| 2026-05-01 11:13 | 17.68088 | -62.89560 | 13783 ft | 232 kts | 166° |
| 2026-05-01 11:13 | 17.66537 | -62.89093 | 14031 ft | 232 kts | 167° |
| 2026-05-01 11:14 | 17.64987 | -62.88626 | 14281 ft | 231 kts | 167° |
| 2026-05-01 11:14 | 17.63438 | -62.88159 | 14533 ft | 231 kts | 167° |
| 2026-05-01 11:14 | 17.61889 | -62.87693 | 14783 ft | 231 kts | 167° |
| 2026-05-01 11:14 | 17.60340 | -62.87227 | 14983 ft | 234 kts | 167° |
| 2026-05-01 11:15 | 17.58745 | -62.86749 | 14985 ft | 243 kts | 167° |
| 2026-05-01 11:15 | 17.57100 | -62.86256 | 14987 ft | 249 kts | 167° |
| 2026-05-01 11:15 | 17.55418 | -62.85750 | 14989 ft | 254 kts | 167° |
| 2026-05-01 11:15 | 17.53709 | -62.85235 | 14990 ft | 257 kts | 167° |
| 2026-05-01 11:16 | 17.51999 | -62.84720 | 14989 ft | 259 kts | 167° |
| 2026-05-01 11:16 | 17.50260 | -62.84197 | 14991 ft | 261 kts | 167° |
| 2026-05-01 11:16 | 17.48512 | -62.83671 | 14992 ft | 261 kts | 167° |
| 2026-05-01 11:16 | 17.46786 | -62.83057 | 14990 ft | 263 kts | 158° |
| 2026-05-01 11:17 | 17.45139 | -62.82221 | 14990 ft | 264 kts | 156° |
| 2026-05-01 11:17 | 17.43481 | -62.81381 | 14991 ft | 264 kts | 157° |
| 2026-05-01 11:17 | 17.41820 | -62.80552 | 14991 ft | 265 kts | 157° |
| 2026-05-01 11:17 | 17.40154 | -62.79721 | 14993 ft | 265 kts | 157° |
| 2026-05-01 11:18 | 17.38490 | -62.78887 | 14991 ft | 265 kts | 157° |
| 2026-05-01 11:18 | 17.36825 | -62.78054 | 14989 ft | 265 kts | 157° |
| 2026-05-01 11:18 | 17.35157 | -62.77220 | 14996 ft | 267 kts | 157° |
| 2026-05-01 11:18 | 17.33482 | -62.76382 | 14993 ft | 268 kts | 157° |
| 2026-05-01 11:19 | 17.31802 | -62.75541 | 14995 ft | 267 kts | 157° |
| 2026-05-01 11:19 | 17.30143 | -62.74678 | 14993 ft | 267 kts | 152° |
| 2026-05-01 11:19 | 17.28708 | -62.73446 | 14994 ft | 269 kts | 135° |
| 2026-05-01 11:19 | 17.27468 | -62.71981 | 14992 ft | 269 kts | 133° |
| 2026-05-01 11:20 | 17.26228 | -62.70513 | 14992 ft | 269 kts | 134° |
| 2026-05-01 11:20 | 17.24985 | -62.69052 | 14992 ft | 269 kts | 134° |
| 2026-05-01 11:20 | 17.23741 | -62.67589 | 14995 ft | 269 kts | 134° |
| 2026-05-01 11:20 | 17.22494 | -62.66120 | 14993 ft | 269 kts | 134° |
| 2026-05-01 11:21 | 17.21268 | -62.64676 | 15004 ft | 270 kts | 134° |
| 2026-05-01 11:21 | 17.20023 | -62.63211 | 15001 ft | 270 kts | 134° |
| 2026-05-01 11:21 | 17.18778 | -62.61745 | 15011 ft | 269 kts | 134° |
| 2026-05-01 11:21 | 17.17533 | -62.60281 | 15011 ft | 270 kts | 134° |
| 2026-05-01 11:22 | 17.16288 | -62.58817 | 15011 ft | 270 kts | 134° |
| 2026-05-01 11:22 | 17.15043 | -62.57354 | 15012 ft | 269 kts | 134° |
| 2026-05-01 11:22 | 17.13803 | -62.55894 | 15014 ft | 269 kts | 134° |
| 2026-05-01 11:22 | 17.12563 | -62.54434 | 15015 ft | 268 kts | 134° |
| 2026-05-01 11:23 | 17.11322 | -62.52976 | 15015 ft | 268 kts | 134° |
| 2026-05-01 11:23 | 17.10079 | -62.51516 | 15015 ft | 268 kts | 134° |
| 2026-05-01 11:23 | 17.08837 | -62.50057 | 15015 ft | 268 kts | 134° |
| 2026-05-01 11:23 | 17.07595 | -62.48598 | 15015 ft | 269 kts | 134° |
| 2026-05-01 11:24 | 17.06367 | -62.47156 | 15015 ft | 269 kts | 134° |
| 2026-05-01 11:24 | 17.05123 | -62.45695 | 15014 ft | 269 kts | 134° |
| 2026-05-01 11:24 | 17.02630 | -62.42769 | 15005 ft | 269 kts | 134° |
| 2026-05-01 11:25 | 17.01382 | -62.41305 | 15005 ft | 269 kts | 134° |
| 2026-05-01 11:25 | 16.98894 | -62.38385 | 15006 ft | 269 kts | 134° |
| 2026-05-01 11:25 | 16.97650 | -62.36927 | 15006 ft | 269 kts | 134° |
| 2026-05-01 11:26 | 16.96407 | -62.35469 | 15006 ft | 268 kts | 134° |
| 2026-05-01 11:26 | 16.93923 | -62.32558 | 15009 ft | 268 kts | 134° |
| 2026-05-01 11:26 | 16.92680 | -62.31101 | 15010 ft | 268 kts | 134° |
| 2026-05-01 11:27 | 16.91440 | -62.29650 | 15010 ft | 268 kts | 134° |
| 2026-05-01 11:27 | 16.90199 | -62.28196 | 15011 ft | 268 kts | 134° |
| 2026-05-01 11:27 | 16.88957 | -62.26741 | 15010 ft | 268 kts | 134° |
| 2026-05-01 11:27 | 16.87715 | -62.25288 | 15010 ft | 268 kts | 134° |
| 2026-05-01 11:28 | 16.86492 | -62.23856 | 15010 ft | 268 kts | 134° |
| 2026-05-01 11:28 | 16.85251 | -62.22404 | 15010 ft | 268 kts | 134° |
| 2026-05-01 11:28 | 16.84013 | -62.20955 | 15010 ft | 267 kts | 134° |
| 2026-05-01 11:29 | 16.81533 | -62.18056 | 15013 ft | 268 kts | 134° |
| 2026-05-01 11:29 | 16.80292 | -62.16606 | 15010 ft | 268 kts | 134° |
| 2026-05-01 11:29 | 16.77809 | -62.13705 | 15010 ft | 268 kts | 134° |
| 2026-05-01 11:30 | 16.76569 | -62.12255 | 15010 ft | 267 kts | 134° |
| 2026-05-01 11:30 | 16.75330 | -62.10807 | 15010 ft | 267 kts | 134° |
| 2026-05-01 11:30 | 16.74091 | -62.09361 | 15010 ft | 267 kts | 134° |
| 2026-05-01 11:30 | 16.72871 | -62.07935 | 15010 ft | 267 kts | 134° |
| 2026-05-01 11:31 | 16.71634 | -62.06491 | 15010 ft | 267 kts | 134° |
| 2026-05-01 11:31 | 16.70395 | -62.05044 | 15011 ft | 267 kts | 134° |
| 2026-05-01 11:31 | 16.69166 | -62.03611 | 15011 ft | 267 kts | 134° |
| 2026-05-01 11:31 | 16.67920 | -62.02157 | 15010 ft | 267 kts | 134° |
| 2026-05-01 11:32 | 16.66685 | -62.00716 | 15010 ft | 267 kts | 134° |
| 2026-05-01 11:32 | 16.65445 | -61.99268 | 15011 ft | 267 kts | 134° |
| 2026-05-01 11:32 | 16.64209 | -61.97828 | 15011 ft | 266 kts | 134° |
| 2026-05-01 11:32 | 16.62972 | -61.96386 | 15010 ft | 266 kts | 134° |
| 2026-05-01 11:33 | 16.61737 | -61.94947 | 15010 ft | 266 kts | 134° |
| 2026-05-01 11:33 | 16.60515 | -61.93522 | 15010 ft | 266 kts | 134° |
| 2026-05-01 11:33 | 16.59284 | -61.92086 | 15010 ft | 266 kts | 134° |
| 2026-05-01 11:33 | 16.58047 | -61.90646 | 15010 ft | 266 kts | 134° |
| 2026-05-01 11:34 | 16.56815 | -61.89210 | 15010 ft | 266 kts | 134° |
| 2026-05-01 11:34 | 16.55578 | -61.87770 | 15011 ft | 266 kts | 134° |
| 2026-05-01 11:34 | 16.54760 | -61.86818 | 15011 ft | 266 kts | 134° |
| 2026-05-01 11:34 | 16.53526 | -61.85382 | 15010 ft | 266 kts | 134° |
| 2026-05-01 11:35 | 16.52293 | -61.83946 | 15010 ft | 266 kts | 134° |
| 2026-05-01 11:35 | 16.51058 | -61.82508 | 15011 ft | 266 kts | 134° |
| 2026-05-01 11:35 | 16.49824 | -61.81073 | 15010 ft | 266 kts | 134° |
| 2026-05-01 11:35 | 16.48595 | -61.79645 | 15010 ft | 266 kts | 134° |
| 2026-05-01 11:36 | 16.47362 | -61.78212 | 15010 ft | 266 kts | 134° |
| 2026-05-01 11:36 | 16.46129 | -61.76777 | 15006 ft | 266 kts | 134° |
| 2026-05-01 11:36 | 16.44895 | -61.75342 | 15006 ft | 266 kts | 134° |
| 2026-05-01 11:36 | 16.43662 | -61.73909 | 15006 ft | 265 kts | 134° |
| 2026-05-01 11:37 | 16.42430 | -61.72478 | 15006 ft | 266 kts | 134° |
| 2026-05-01 11:37 | 16.41195 | -61.71043 | 15006 ft | 266 kts | 134° |
| 2026-05-01 11:37 | 16.39963 | -61.69611 | 15006 ft | 266 kts | 134° |
| 2026-05-01 11:37 | 16.38730 | -61.68179 | 15006 ft | 265 kts | 134° |
| 2026-05-01 11:38 | 16.37495 | -61.66746 | 15006 ft | 266 kts | 134° |
| 2026-05-01 11:38 | 16.36263 | -61.65315 | 15007 ft | 266 kts | 134° |
| 2026-05-01 11:38 | 16.35028 | -61.63882 | 15005 ft | 266 kts | 134° |
| 2026-05-01 11:38 | 16.33791 | -61.62447 | 14996 ft | 266 kts | 134° |
| 2026-05-01 11:39 | 16.32555 | -61.61013 | 14999 ft | 266 kts | 134° |
| 2026-05-01 11:39 | 16.31337 | -61.59599 | 14998 ft | 266 kts | 134° |
| 2026-05-01 11:39 | 16.30089 | -61.58152 | 14996 ft | 265 kts | 134° |
| 2026-05-01 11:39 | 16.28872 | -61.56742 | 14999 ft | 266 kts | 134° |
| 2026-05-01 11:40 | 16.27637 | -61.55312 | 14995 ft | 265 kts | 134° |
| 2026-05-01 11:40 | 16.26234 | -61.54090 | 14991 ft | 263 kts | 150° |
| 2026-05-01 11:40 | 16.24567 | -61.53331 | 14989 ft | 260 kts | 163° |
| 2026-05-01 11:40 | 16.22846 | -61.52746 | 14994 ft | 261 kts | 163° |
| 2026-05-01 11:41 | 16.21117 | -61.52157 | 14993 ft | 261 kts | 163° |
| 2026-05-01 11:41 | 16.19394 | -61.51564 | 14992 ft | 261 kts | 163° |
| 2026-05-01 11:41 | 16.17666 | -61.50970 | 14990 ft | 261 kts | 163° |
| 2026-05-01 11:41 | 16.15939 | -61.50378 | 14990 ft | 261 kts | 163° |
| 2026-05-01 11:42 | 16.14207 | -61.49784 | 14991 ft | 262 kts | 163° |
| 2026-05-01 11:42 | 16.12479 | -61.49191 | 14994 ft | 262 kts | 163° |
| 2026-05-01 11:42 | 16.10747 | -61.48596 | 14992 ft | 262 kts | 163° |
| 2026-05-01 11:42 | 16.09014 | -61.48003 | 14990 ft | 262 kts | 163° |
| 2026-05-01 11:43 | 16.07288 | -61.47411 | 14990 ft | 261 kts | 163° |
| 2026-05-01 11:43 | 16.05581 | -61.46826 | 14993 ft | 262 kts | 163° |
| 2026-05-01 11:43 | 16.03851 | -61.46233 | 14992 ft | 261 kts | 163° |
| 2026-05-01 11:44 | 16.00400 | -61.45051 | 14995 ft | 261 kts | 163° |
| 2026-05-01 11:44 | 15.98669 | -61.44458 | 14993 ft | 261 kts | 163° |
| 2026-05-01 11:44 | 15.96944 | -61.43867 | 14993 ft | 261 kts | 163° |
| 2026-05-01 11:44 | 15.95224 | -61.43277 | 14993 ft | 261 kts | 163° |
| 2026-05-01 11:45 | 15.93499 | -61.42686 | 15002 ft | 261 kts | 163° |
| 2026-05-01 11:45 | 15.91773 | -61.42096 | 15002 ft | 261 kts | 163° |
| 2026-05-01 11:45 | 15.90046 | -61.41505 | 15003 ft | 261 kts | 163° |
| 2026-05-01 11:45 | 15.88320 | -61.40914 | 14999 ft | 261 kts | 163° |
| 2026-05-01 11:46 | 15.86598 | -61.40325 | 14999 ft | 261 kts | 163° |
| 2026-05-01 11:46 | 15.84897 | -61.39743 | 15000 ft | 261 kts | 163° |
| 2026-05-01 11:46 | 15.83173 | -61.39154 | 15002 ft | 261 kts | 163° |
| 2026-05-01 11:46 | 15.81451 | -61.38564 | 15011 ft | 260 kts | 163° |
| 2026-05-01 11:47 | 15.79733 | -61.37976 | 15010 ft | 260 kts | 163° |
| 2026-05-01 11:47 | 15.78009 | -61.37387 | 15011 ft | 260 kts | 163° |
| 2026-05-01 11:47 | 15.76287 | -61.36799 | 15011 ft | 260 kts | 163° |
| 2026-05-01 11:47 | 15.74563 | -61.36210 | 15011 ft | 260 kts | 163° |
| 2026-05-01 11:48 | 15.72841 | -61.35621 | 15011 ft | 260 kts | 163° |
| 2026-05-01 11:48 | 15.71124 | -61.35035 | 15011 ft | 260 kts | 163° |
| 2026-05-01 11:48 | 15.69427 | -61.34455 | 15012 ft | 260 kts | 163° |
| 2026-05-01 11:48 | 15.67702 | -61.33866 | 15012 ft | 261 kts | 163° |
| 2026-05-01 11:49 | 15.65977 | -61.33277 | 15011 ft | 261 kts | 163° |
| 2026-05-01 11:49 | 15.64250 | -61.32688 | 15011 ft | 261 kts | 163° |
| 2026-05-01 11:49 | 15.62528 | -61.32100 | 15011 ft | 260 kts | 163° |
| 2026-05-01 11:49 | 15.60806 | -61.31511 | 15011 ft | 260 kts | 163° |
| 2026-05-01 11:50 | 15.59084 | -61.30924 | 15011 ft | 260 kts | 163° |
| 2026-05-01 11:50 | 15.57367 | -61.30338 | 15012 ft | 260 kts | 163° |
| 2026-05-01 11:50 | 15.55648 | -61.29752 | 15012 ft | 260 kts | 163° |
| 2026-05-01 11:50 | 15.53913 | -61.29231 | 15011 ft | 259 kts | 166° |
| 2026-05-01 11:51 | 15.52176 | -61.28734 | 15010 ft | 259 kts | 166° |
| 2026-05-01 11:51 | 15.50434 | -61.28229 | 15010 ft | 259 kts | 166° |
| 2026-05-01 11:51 | 15.48717 | -61.27738 | 15011 ft | 259 kts | 166° |
| 2026-05-01 11:51 | 15.46978 | -61.27245 | 15012 ft | 259 kts | 166° |
| 2026-05-01 11:52 | 15.45241 | -61.26751 | 15008 ft | 259 kts | 166° |
| 2026-05-01 11:52 | 15.43501 | -61.26255 | 15012 ft | 259 kts | 166° |
| 2026-05-01 11:52 | 15.41762 | -61.25758 | 15013 ft | 260 kts | 166° |
| 2026-05-01 11:52 | 15.40019 | -61.25261 | 15010 ft | 260 kts | 166° |
| 2026-05-01 11:53 | 15.38276 | -61.24764 | 15010 ft | 260 kts | 166° |
| 2026-05-01 11:53 | 15.36530 | -61.24267 | 15010 ft | 260 kts | 166° |
| 2026-05-01 11:53 | 15.34790 | -61.23772 | 15010 ft | 260 kts | 166° |
| 2026-05-01 11:53 | 15.33045 | -61.23275 | 15011 ft | 260 kts | 166° |
| 2026-05-01 11:54 | 15.31301 | -61.22778 | 15010 ft | 260 kts | 166° |
| 2026-05-01 11:54 | 15.29579 | -61.22287 | 15010 ft | 259 kts | 166° |
| 2026-05-01 11:54 | 15.27841 | -61.21793 | 15010 ft | 259 kts | 166° |
| 2026-05-01 11:54 | 15.26102 | -61.21298 | 15010 ft | 259 kts | 166° |
| 2026-05-01 11:55 | 15.24363 | -61.20804 | 15010 ft | 259 kts | 166° |
| 2026-05-01 11:55 | 15.22629 | -61.20310 | 15010 ft | 259 kts | 166° |
| 2026-05-01 11:55 | 15.20890 | -61.19815 | 15010 ft | 259 kts | 166° |
| 2026-05-01 11:55 | 15.19153 | -61.19321 | 15010 ft | 259 kts | 166° |
| 2026-05-01 11:56 | 15.17416 | -61.18827 | 15010 ft | 259 kts | 166° |
| 2026-05-01 11:56 | 15.15680 | -61.18334 | 15010 ft | 259 kts | 166° |
| 2026-05-01 11:56 | 15.13941 | -61.17838 | 15010 ft | 259 kts | 166° |
| 2026-05-01 11:56 | 15.12205 | -61.17345 | 15011 ft | 259 kts | 166° |
| 2026-05-01 11:57 | 15.10467 | -61.16851 | 15011 ft | 259 kts | 166° |
| 2026-05-01 11:57 | 15.08732 | -61.16358 | 15011 ft | 259 kts | 166° |
| 2026-05-01 11:57 | 15.07000 | -61.15866 | 15010 ft | 258 kts | 166° |
| 2026-05-01 11:57 | 15.05268 | -61.15374 | 15010 ft | 258 kts | 166° |
| 2026-05-01 11:58 | 15.03533 | -61.14881 | 15011 ft | 258 kts | 166° |
| 2026-05-01 11:58 | 15.01799 | -61.14389 | 15011 ft | 258 kts | 165° |
| 2026-05-01 11:58 | 14.98329 | -61.13403 | 15006 ft | 258 kts | 165° |
| 2026-05-01 11:59 | 14.96620 | -61.12919 | 15006 ft | 258 kts | 165° |
| 2026-05-01 11:59 | 14.94888 | -61.12428 | 15006 ft | 258 kts | 165° |
| 2026-05-01 11:59 | 14.93151 | -61.11935 | 15006 ft | 258 kts | 165° |
| 2026-05-01 12:00 | 14.89690 | -61.10952 | 15006 ft | 258 kts | 165° |
| 2026-05-01 12:00 | 14.87957 | -61.10461 | 15007 ft | 258 kts | 165° |
| 2026-05-01 12:00 | 14.84494 | -61.09479 | 15006 ft | 258 kts | 165° |
| 2026-05-01 12:01 | 14.82762 | -61.08988 | 15006 ft | 258 kts | 165° |
| 2026-05-01 12:01 | 14.81028 | -61.08497 | 15005 ft | 257 kts | 165° |
| 2026-05-01 12:01 | 14.79303 | -61.08008 | 15006 ft | 257 kts | 165° |
| 2026-05-01 12:01 | 14.77572 | -61.07517 | 15007 ft | 258 kts | 165° |
| 2026-05-01 12:02 | 14.75843 | -61.07027 | 15006 ft | 258 kts | 165° |
| 2026-05-01 12:02 | 14.74111 | -61.06537 | 14997 ft | 258 kts | 165° |
| 2026-05-01 12:02 | 14.72379 | -61.06047 | 14999 ft | 258 kts | 165° |
| 2026-05-01 12:02 | 14.70648 | -61.05556 | 14997 ft | 258 kts | 165° |
| 2026-05-01 12:03 | 14.68941 | -61.05074 | 14996 ft | 258 kts | 165° |
| 2026-05-01 12:03 | 14.67215 | -61.04584 | 14996 ft | 257 kts | 165° |
| 2026-05-01 12:03 | 14.65485 | -61.04094 | 14996 ft | 257 kts | 165° |
| 2026-05-01 12:03 | 14.63757 | -61.03606 | 14995 ft | 258 kts | 165° |
| 2026-05-01 12:04 | 14.62026 | -61.03117 | 14996 ft | 258 kts | 165° |
| 2026-05-01 12:04 | 14.60297 | -61.02628 | 14995 ft | 257 kts | 165° |
| 2026-05-01 12:04 | 14.58817 | -61.02272 | 14993 ft | 256 kts | 173° |
| 2026-05-01 12:04 | 14.56982 | -61.02161 | 14995 ft | 256 kts | 177° |
| 2026-05-01 12:05 | 14.55198 | -61.02071 | 14993 ft | 257 kts | 177° |
| 2026-05-01 12:05 | 14.51594 | -61.01875 | 14684 ft | 267 kts | 177° |
| 2026-05-01 12:05 | 14.49735 | -61.01778 | 14287 ft | 266 kts | 177° |
| 2026-05-01 12:06 | 14.47895 | -61.01682 | 13886 ft | 263 kts | 176° |
| 2026-05-01 12:06 | 14.46069 | -61.01583 | 13486 ft | 260 kts | 176° |
| 2026-05-01 12:06 | 14.44309 | -61.01489 | 13084 ft | 254 kts | 176° |
| 2026-05-01 12:06 | 14.42553 | -61.01395 | 12619 ft | 252 kts | 176° |
| 2026-05-01 12:07 | 14.40803 | -61.01300 | 12118 ft | 251 kts | 176° |
| 2026-05-01 12:07 | 14.39054 | -61.01206 | 11611 ft | 251 kts | 175° |
| 2026-05-01 12:07 | 14.37317 | -61.01112 | 11118 ft | 249 kts | 175° |
| 2026-05-01 12:07 | 14.35591 | -61.01021 | 10617 ft | 247 kts | 175° |
| 2026-05-01 12:08 | 14.33876 | -61.00929 | 10119 ft | 247 kts | 175° |
| 2026-05-01 12:08 | 14.32166 | -61.00836 | 9619 ft | 245 kts | 175° |
| 2026-05-01 12:08 | 14.30464 | -61.00745 | 9120 ft | 245 kts | 175° |
| 2026-05-01 12:08 | 14.28772 | -61.00655 | 8623 ft | 244 kts | 174° |
| 2026-05-01 12:09 | 14.27077 | -61.00564 | 8124 ft | 243 kts | 174° |
| 2026-05-01 12:09 | 14.25385 | -61.00472 | 7625 ft | 243 kts | 174° |
| 2026-05-01 12:09 | 14.23701 | -61.00383 | 7126 ft | 242 kts | 174° |
| 2026-05-01 12:09 | 14.22027 | -61.00294 | 6626 ft | 240 kts | 174° |
| 2026-05-01 12:10 | 14.20388 | -61.00206 | 6132 ft | 238 kts | 174° |
| 2026-05-01 12:10 | 14.17096 | -61.00033 | 5129 ft | 233 kts | 174° |
| 2026-05-01 12:10 | 14.15491 | -60.99958 | 4624 ft | 228 kts | 174° |
| 2026-05-01 12:11 | 14.12395 | -60.99810 | 3635 ft | 220 kts | 174° |
| 2026-05-01 12:11 | 14.10878 | -60.99736 | 3136 ft | 217 kts | 174° |
| 2026-05-01 12:11 | 14.09369 | -60.99663 | 2637 ft | 216 kts | 174° |
| 2026-05-01 12:12 | 14.07869 | -60.99591 | 2135 ft | 214 kts | 175° |
| 2026-05-01 12:12 | 14.06419 | -60.99523 | 1896 ft | 195 kts | 175° |
| 2026-05-01 12:12 | 14.05182 | -60.99467 | 1887 ft | 162 kts | 174° |
| 2026-05-01 12:12 | 14.04203 | -60.99422 | 1883 ft | 122 kts | 173° |
| 2026-05-01 12:13 | 14.03496 | -60.99569 | 1922 ft | 95 kts | 208° |
| 2026-05-01 12:13 | 14.03121 | -61.00135 | 1779 ft | 104 kts | 255° |
| 2026-05-01 12:13 | 14.02994 | -61.00886 | 1648 ft | 105 kts | 256° |
| 2026-05-01 12:13 | 14.02848 | -61.01592 | 1611 ft | 99 kts | 256° |
| 2026-05-01 12:14 | 14.02693 | -61.02259 | 1593 ft | 94 kts | 251° |
| 2026-05-01 12:14 | 14.02504 | -61.02919 | 1540 ft | 97 kts | 251° |
| 2026-05-01 12:14 | 14.02303 | -61.03585 | 1526 ft | 96 kts | 249° |
| 2026-05-01 12:14 | 14.02047 | -61.04210 | 1477 ft | 95 kts | 228° |
| 2026-05-01 12:15 | 14.01439 | -61.04532 | 1193 ft | 107 kts | 175° |
| 2026-05-01 12:15 | 14.00763 | -61.04252 | 931 ft | 105 kts | 132° |
| 2026-05-01 12:15 | 14.00557 | -61.03576 | 722 ft | 100 kts | 78° |
| 2026-05-01 12:15 | 14.00841 | -61.02950 | 547 ft | 99 kts | 58° |
| 2026-05-01 12:16 | 14.01113 | -61.02321 | 410 ft | 93 kts | 66° |
| 2026-05-01 12:16 | 14.01350 | -61.01743 | 375 ft | 83 kts | 71° |
| 2026-05-01 12:16 | 14.01508 | -61.01167 | 294 ft | 85 kts | 73° |
| 2026-05-01 12:16 | 14.01663 | -61.00567 | 153 ft | 87 kts | 72° |
| 2026-05-01 12:17 | 14.01824 | -60.99988 | 42 ft | 80 kts | 71° |
| 2026-05-01 12:17 | 14.01952 | -60.99526 | 24 ft | 44 kts | 77° |
| 2026-05-01 12:17 | 14.01997 | -60.99344 | 21 ft | 24 kts | 73° |
| 2026-05-01 12:17 | 14.02035 | -60.99218 | 21 ft | 11 kts | 129° |
| 2026-05-01 12:18 | 14.01988 | -60.99296 | 21 ft | 19 kts | 261° |
| 2026-05-01 12:18 | 14.01964 | -60.99439 | 22 ft | 23 kts | 257° |
| 2026-05-01 12:18 | 14.01920 | -60.99582 | 23 ft | 14 kts | 260° |
| 2026-05-01 12:18 | 14.01947 | -60.99622 | 24 ft | 9 kts | 27° |
| 2026-05-01 12:19 | 14.02015 | -60.99598 | 24 ft | 6 kts | 35° |
| 2026-05-01 12:19 | 14.02031 | -60.99561 | 24 ft | 4 kts | 119° |
| 2026-05-01 12:19 | 14.02027 | -60.99557 | 24 ft | 0 kts | 145° |